Record high temperature 100.8°F Record low temperature -75.5°F Record high gust 121.0 mph Record high average 61.8 mph Record daily rain 2.61 in. Record low windchill -106.6°F Record high barometer 31.889 in. Record low barometer 23.642 in.
Daily high pressure 30.254 in. Daily low pressure 30.188 in. Daily low windchill 54.4°F Daily high heat index 73.3°F Daily high gust speed 9.8 mph SSW Daily high average speed 5.9 mph S
Weather Data
LAST READING AT TIME: 11:20 AM DATE: July 03 2015, time of next update: 11:30 am
Current WeatherDry Current Temperature 73.3°F (22.9°C) (Heat Index 73.3°F ), Apparent temp 76.3°F
Maximum Temperature (since midnight)73.3°F at: 11:06 AM Minimum Temperature (since midnight)54.4°F at: 6:06 AM
Average windspeed (ten minute)2.8 mph Wind Direction (ten minute)S (184°)
Heat Index 73.3°F Maximum Gust (last hour)9.8 mph at: 11:06 AM
Maximum Gust (since midnight)9.8 mph at: 11:06 AM Maximum 1 minute average (since midnight)5.9 mph at: 11:12 AM
Rainfall (last hour)0.00 in. (0.0 mm) Rainfall (since midnight)0.00 in. (0.0 mm) ---
Rainfall This month 0.18 in. (4.6 mm) Rainfall To date this year 12.46 in. (316.4 mm)
Maximum rain per minute (last hour)0.00 in/min Maximum rain per hour (last 6 hours)0.00 in/hour
Yesterdays rainfall 0.01 in DewPoint 59.5°F (Wet Bulb :65.0°F )
Humidity 62 %, Humidex 80.8°F Barometer corrected to msl30.210 in. (1023.0 hPa)
Pressure change -0.01 in. (last hour) Trend (last hour)STEADY
Pressure change (last 12 hours)-0.04 in Pressure change (last 6 hours)+0.01 in

This page is updated from recent data collected by a DAVIS WMII weather station Use the Reload or Refresh facility on your browser to retrieve the latest data.


Click here for the last 24 hour graph
Click here for the last 48 hour graph
Click here for the last 72 hour graph
Click here for the month to date graph


Weather report/warning/Metars

COLORADO SPRINGS MUNI, CO, United States (KCOS) 38-49N 104-43W 1856M
Jul 03, 2015 - 12:54 PM EDT / 2015.07.03 1654 UTC
Wind: from the S (190 degrees) at 9 MPH (8 KT):0
Visibility: 10 mile(s):0
Sky conditions: partly cloudy
Temperature: 72.0 F (22.2 C)
Dew Point: 55.9 F (13.3 C)
Relative Humidity: 57%
Pressure (altimeter): 30.25 in. Hg (1024 hPa)
ob: KCOS 031654Z 19008KT 10SM FEW028 SCT050 SCT200 22/13 A3025 RMK AO2 SLP162 T02220133
cycle: 17
Air Force Academy, CO, United States (KAFF) 38-58N 104-49W 1999M
Jul 03, 2015 - 12:58 PM EDT / 2015.07.03 1658 UTC
Wind: from the S (180 degrees) at 13 MPH (11 KT) gusting to 17 MPH (15 KT):0
Visibility: 10 mile(s):0
Sky conditions: clear
Temperature: 70.9 F (21.6 C)
Dew Point: 55.9 F (13.3 C)
Relative Humidity: 59%
Pressure (altimeter): 30.25 in. Hg (1024 hPa)
ob: KAFF 031658Z AUTO 18011G15KT 10SM CLR 22/13 A3025 RMK AO2 SLP159 T02160133
cycle: 17
Fort Carson, CO, United States (KFCS) 38-42N 104-46W 1789M
Jul 03, 2015 - 11:58 AM EDT / 2015.07.03 1558 UTC
Wind: Variable at 6 MPH (5 KT):0
Visibility: 10 mile(s):0
Sky conditions: clear
Temperature: 69.3 F (20.7 C)
Dew Point: 57.7 F (14.3 C)
Relative Humidity: 66%
Pressure (altimeter): 30.23 in. Hg (1023 hPa)
ob: KFCS 031558Z AUTO VRB05KT 10SM CLR 21/14 A3023 RMK AO2 SLP184 T02070143
cycle: 16



The data is logged at two minute intervals, but there is data recorded every minute. Best viewed in 800 x 600 and True colour.

Use the RELOAD facility on your browser to retrieve the latest data.

Click here for a daily update of the averages/extremes to date for the month
Created by "Weather Display" software version 10.37R Build 78 at this start time/date 03:31 am 6/10/2015